sensor_id;sensor_type;location;lat;lon;timestamp;temperature;humidity
11908;DHT22;6014;47.690;9.130;2023-07-20T00:01:25;19.30;85.20
11908;DHT22;6014;47.690;9.130;2023-07-20T00:03:53;19.30;83.40
11908;DHT22;6014;47.690;9.130;2023-07-20T00:06:23;19.30;84.20
11908;DHT22;6014;47.690;9.130;2023-07-20T00:08:51;19.30;84.30
11908;DHT22;6014;47.690;9.130;2023-07-20T00:11:19;19.30;84.10
11908;DHT22;6014;47.690;9.130;2023-07-20T00:13:48;19.40;85.20
11908;DHT22;6014;47.690;9.130;2023-07-20T00:16:16;19.50;84.60
11908;DHT22;6014;47.690;9.130;2023-07-20T00:18:45;19.50;84.80
11908;DHT22;6014;47.690;9.130;2023-07-20T00:21:13;19.50;86.20
11908;DHT22;6014;47.690;9.130;2023-07-20T00:23:41;19.50;85.50
11908;DHT22;6014;47.690;9.130;2023-07-20T00:26:09;19.60;84.60
11908;DHT22;6014;47.690;9.130;2023-07-20T00:28:37;19.80;79.30
11908;DHT22;6014;47.690;9.130;2023-07-20T00:31:05;20.00;80.50
11908;DHT22;6014;47.690;9.130;2023-07-20T00:33:33;20.10;78.50
11908;DHT22;6014;47.690;9.130;2023-07-20T00:36:03;20.20;78.50
11908;DHT22;6014;47.690;9.130;2023-07-20T00:38:31;20.30;77.10
11908;DHT22;6014;47.690;9.130;2023-07-20T00:41:09;20.30;77.60
11908;DHT22;6014;47.690;9.130;2023-07-20T00:43:37;20.40;76.10
11908;DHT22;6014;47.690;9.130;2023-07-20T00:46:05;20.40;72.90
11908;DHT22;6014;47.690;9.130;2023-07-20T00:48:33;20.60;71.60
11908;DHT22;6014;47.690;9.130;2023-07-20T00:51:03;20.70;70.70
11908;DHT22;6014;47.690;9.130;2023-07-20T00:53:31;20.70;70.50
11908;DHT22;6014;47.690;9.130;2023-07-20T00:56:00;20.70;70.90
11908;DHT22;6014;47.690;9.130;2023-07-20T00:58:41;20.70;69.70
11908;DHT22;6014;47.690;9.130;2023-07-20T01:01:09;20.70;69.00
11908;DHT22;6014;47.690;9.130;2023-07-20T01:03:38;20.70;68.90
11908;DHT22;6014;47.690;9.130;2023-07-20T01:06:26;20.70;68.50
11908;DHT22;6014;47.690;9.130;2023-07-20T01:09:04;20.70;69.00
11908;DHT22;6014;47.690;9.130;2023-07-20T01:11:38;20.70;68.60
11908;DHT22;6014;47.690;9.130;2023-07-20T01:14:12;20.70;68.20
11908;DHT22;6014;47.690;9.130;2023-07-20T01:16:43;20.70;68.30
11908;DHT22;6014;47.690;9.130;2023-07-20T01:19:13;20.70;67.80
11908;DHT22;6014;47.690;9.130;2023-07-20T01:21:48;20.70;67.40
11908;DHT22;6014;47.690;9.130;2023-07-20T01:28:03;20.80;67.60
11908;DHT22;6014;47.690;9.130;2023-07-20T01:30:55;20.70;68.10
11908;DHT22;6014;47.690;9.130;2023-07-20T01:33:31;20.70;67.80
11908;DHT22;6014;47.690;9.130;2023-07-20T01:36:02;20.60;67.80
11908;DHT22;6014;47.690;9.130;2023-07-20T01:38:31;20.60;67.10
11908;DHT22;6014;47.690;9.130;2023-07-20T01:40:59;20.60;67.60
11908;DHT22;6014;47.690;9.130;2023-07-20T01:43:27;20.60;67.80
11908;DHT22;6014;47.690;9.130;2023-07-20T01:45:55;20.50;67.80
11908;DHT22;6014;47.690;9.130;2023-07-20T01:48:24;20.50;67.90
11908;DHT22;6014;47.690;9.130;2023-07-20T01:50:53;20.50;68.00
11908;DHT22;6014;47.690;9.130;2023-07-20T01:53:21;20.40;68.10
11908;DHT22;6014;47.690;9.130;2023-07-20T01:55:49;20.40;68.50
11908;DHT22;6014;47.690;9.130;2023-07-20T01:58:20;20.40;68.50
11908;DHT22;6014;47.690;9.130;2023-07-20T02:00:48;20.30;68.50
11908;DHT22;6014;47.690;9.130;2023-07-20T02:03:16;20.30;67.90
11908;DHT22;6014;47.690;9.130;2023-07-20T02:05:44;20.30;67.70
11908;DHT22;6014;47.690;9.130;2023-07-20T02:08:26;20.20;69.20
11908;DHT22;6014;47.690;9.130;2023-07-20T02:10:54;20.10;69.20
11908;DHT22;6014;47.690;9.130;2023-07-20T02:13:22;20.10;69.80
11908;DHT22;6014;47.690;9.130;2023-07-20T02:15:50;20.00;70.20
11908;DHT22;6014;47.690;9.130;2023-07-20T02:18:18;19.90;70.40
11908;DHT22;6014;47.690;9.130;2023-07-20T02:20:46;19.80;70.70
11908;DHT22;6014;47.690;9.130;2023-07-20T02:23:14;19.70;70.80
11908;DHT22;6014;47.690;9.130;2023-07-20T02:25:44;19.70;70.80
11908;DHT22;6014;47.690;9.130;2023-07-20T02:28:13;19.60;70.80
11908;DHT22;6014;47.690;9.130;2023-07-20T02:30:41;19.60;70.90
11908;DHT22;6014;47.690;9.130;2023-07-20T02:33:09;19.50;71.70
11908;DHT22;6014;47.690;9.130;2023-07-20T02:35:37;19.40;71.50
11908;DHT22;6014;47.690;9.130;2023-07-20T02:38:05;19.30;72.10
11908;DHT22;6014;47.690;9.130;2023-07-20T02:40:34;19.20;72.50
11908;DHT22;6014;47.690;9.130;2023-07-20T02:43:03;19.20;72.70
11908;DHT22;6014;47.690;9.130;2023-07-20T02:45:31;19.20;73.00
11908;DHT22;6014;47.690;9.130;2023-07-20T02:47:59;19.10;72.90
11908;DHT22;6014;47.690;9.130;2023-07-20T02:50:27;19.10;72.90
11908;DHT22;6014;47.690;9.130;2023-07-20T02:52:55;19.00;73.20
11908;DHT22;6014;47.690;9.130;2023-07-20T02:55:35;19.10;73.00
11908;DHT22;6014;47.690;9.130;2023-07-20T02:58:05;19.10;73.00
11908;DHT22;6014;47.690;9.130;2023-07-20T03:00:33;19.20;72.30
11908;DHT22;6014;47.690;9.130;2023-07-20T03:03:01;19.20;72.00
11908;DHT22;6014;47.690;9.130;2023-07-20T03:05:29;19.30;72.30
11908;DHT22;6014;47.690;9.130;2023-07-20T03:07:57;19.30;72.30
11908;DHT22;6014;47.690;9.130;2023-07-20T03:10:29;19.20;72.20
11908;DHT22;6014;47.690;9.130;2023-07-20T03:12:58;19.30;72.50
11908;DHT22;6014;47.690;9.130;2023-07-20T03:15:27;19.20;72.10
11908;DHT22;6014;47.690;9.130;2023-07-20T03:17:56;19.30;70.30
11908;DHT22;6014;47.690;9.130;2023-07-20T03:20:25;19.30;70.60
11908;DHT22;6014;47.690;9.130;2023-07-20T03:22:53;19.30;70.30
11908;DHT22;6014;47.690;9.130;2023-07-20T03:25:21;19.30;70.60
11908;DHT22;6014;47.690;9.130;2023-07-20T03:27:52;19.30;70.90
11908;DHT22;6014;47.690;9.130;2023-07-20T03:30:20;19.20;71.30
11908;DHT22;6014;47.690;9.130;2023-07-20T03:32:51;19.20;71.80
11908;DHT22;6014;47.690;9.130;2023-07-20T03:35:19;19.20;71.70
11908;DHT22;6014;47.690;9.130;2023-07-20T03:37:47;19.20;71.90
11908;DHT22;6014;47.690;9.130;2023-07-20T03:40:15;19.10;72.00
11908;DHT22;6014;47.690;9.130;2023-07-20T03:42:43;19.10;72.10
11908;DHT22;6014;47.690;9.130;2023-07-20T03:45:11;19.10;72.10
11908;DHT22;6014;47.690;9.130;2023-07-20T03:47:39;19.00;72.50
11908;DHT22;6014;47.690;9.130;2023-07-20T03:50:10;19.00;72.10
11908;DHT22;6014;47.690;9.130;2023-07-20T03:52:38;19.00;71.80
11908;DHT22;6014;47.690;9.130;2023-07-20T03:55:07;19.00;71.60
11908;DHT22;6014;47.690;9.130;2023-07-20T03:57:35;19.00;72.20
11908;DHT22;6014;47.690;9.130;2023-07-20T04:00:04;19.00;71.80
11908;DHT22;6014;47.690;9.130;2023-07-20T04:02:34;19.00;71.40
11908;DHT22;6014;47.690;9.130;2023-07-20T04:05:02;19.00;71.90
11908;DHT22;6014;47.690;9.130;2023-07-20T04:07:32;19.00;72.50
11908;DHT22;6014;47.690;9.130;2023-07-20T04:10:00;19.10;71.50
11908;DHT22;6014;47.690;9.130;2023-07-20T04:12:28;19.00;71.30
11908;DHT22;6014;47.690;9.130;2023-07-20T04:14:56;19.00;71.20
11908;DHT22;6014;47.690;9.130;2023-07-20T04:17:24;19.00;70.70
11908;DHT22;6014;47.690;9.130;2023-07-20T04:19:53;19.00;70.40
11908;DHT22;6014;47.690;9.130;2023-07-20T04:22:21;19.00;74.30
11908;DHT22;6014;47.690;9.130;2023-07-20T04:24:50;19.00;75.00
11908;DHT22;6014;47.690;9.130;2023-07-20T04:27:18;18.80;78.20
11908;DHT22;6014;47.690;9.130;2023-07-20T04:29:46;18.60;82.00
11908;DHT22;6014;47.690;9.130;2023-07-20T04:32:14;18.50;83.40
11908;DHT22;6014;47.690;9.130;2023-07-20T04:34:43;18.40;83.30
11908;DHT22;6014;47.690;9.130;2023-07-20T04:37:11;18.40;84.40
11908;DHT22;6014;47.690;9.130;2023-07-20T04:39:39;18.40;85.40
11908;DHT22;6014;47.690;9.130;2023-07-20T04:42:08;18.40;85.10
11908;DHT22;6014;47.690;9.130;2023-07-20T04:44:37;18.40;84.70
11908;DHT22;6014;47.690;9.130;2023-07-20T04:47:05;18.50;84.10
11908;DHT22;6014;47.690;9.130;2023-07-20T04:49:33;18.60;83.50
11908;DHT22;6014;47.690;9.130;2023-07-20T04:52:01;18.50;82.80
11908;DHT22;6014;47.690;9.130;2023-07-20T04:54:31;18.50;82.80
11908;DHT22;6014;47.690;9.130;2023-07-20T04:56:59;18.40;82.40
11908;DHT22;6014;47.690;9.130;2023-07-20T04:59:29;18.40;83.00
11908;DHT22;6014;47.690;9.130;2023-07-20T05:01:57;18.40;82.80
11908;DHT22;6014;47.690;9.130;2023-07-20T05:04:25;18.50;83.40
11908;DHT22;6014;47.690;9.130;2023-07-20T05:07:04;18.60;83.50
11908;DHT22;6014;47.690;9.130;2023-07-20T05:09:32;18.60;83.50
11908;DHT22;6014;47.690;9.130;2023-07-20T05:12:00;18.60;82.30
11908;DHT22;6014;47.690;9.130;2023-07-20T05:14:41;18.70;82.30
11908;DHT22;6014;47.690;9.130;2023-07-20T05:17:09;18.80;83.20
11908;DHT22;6014;47.690;9.130;2023-07-20T05:19:37;18.80;81.80
11908;DHT22;6014;47.690;9.130;2023-07-20T05:22:09;18.90;81.20
11908;DHT22;6014;47.690;9.130;2023-07-20T05:24:37;18.90;80.50
11908;DHT22;6014;47.690;9.130;2023-07-20T05:27:05;18.90;79.50
11908;DHT22;6014;47.690;9.130;2023-07-20T05:29:33;19.00;82.00
11908;DHT22;6014;47.690;9.130;2023-07-20T05:32:05;19.10;81.60
11908;DHT22;6014;47.690;9.130;2023-07-20T05:34:33;19.10;78.50
11908;DHT22;6014;47.690;9.130;2023-07-20T05:37:10;19.20;77.90
11908;DHT22;6014;47.690;9.130;2023-07-20T05:39:41;19.30;78.10
11908;DHT22;6014;47.690;9.130;2023-07-20T05:42:14;19.30;77.40
11908;DHT22;6014;47.690;9.130;2023-07-20T05:44:43;19.50;77.90
11908;DHT22;6014;47.690;9.130;2023-07-20T05:47:12;19.60;78.60
11908;DHT22;6014;47.690;9.130;2023-07-20T05:49:41;19.70;77.40
11908;DHT22;6014;47.690;9.130;2023-07-20T05:52:09;19.80;73.70
11908;DHT22;6014;47.690;9.130;2023-07-20T05:54:37;19.80;73.60
11908;DHT22;6014;47.690;9.130;2023-07-20T05:57:05;19.90;74.20
11908;DHT22;6014;47.690;9.130;2023-07-20T05:59:41;20.00;72.70
11908;DHT22;6014;47.690;9.130;2023-07-20T06:02:14;20.20;70.00
11908;DHT22;6014;47.690;9.130;2023-07-20T06:04:42;20.40;69.50
11908;DHT22;6014;47.690;9.130;2023-07-20T06:07:10;20.50;68.90
11908;DHT22;6014;47.690;9.130;2023-07-20T06:09:39;20.80;67.70
11908;DHT22;6014;47.690;9.130;2023-07-20T06:12:08;21.20;67.80
11908;DHT22;6014;47.690;9.130;2023-07-20T06:14:36;21.00;65.10
11908;DHT22;6014;47.690;9.130;2023-07-20T06:17:05;20.80;66.30
11908;DHT22;6014;47.690;9.130;2023-07-20T06:19:35;20.70;64.20
11908;DHT22;6014;47.690;9.130;2023-07-20T06:22:03;20.60;67.20
11908;DHT22;6014;47.690;9.130;2023-07-20T06:24:31;20.60;66.60
11908;DHT22;6014;47.690;9.130;2023-07-20T06:27:00;20.70;66.90
11908;DHT22;6014;47.690;9.130;2023-07-20T06:29:28;20.60;65.70
11908;DHT22;6014;47.690;9.130;2023-07-20T06:31:56;20.70;64.60
11908;DHT22;6014;47.690;9.130;2023-07-20T06:34:24;21.00;65.60
11908;DHT22;6014;47.690;9.130;2023-07-20T06:37:15;20.80;65.00
11908;DHT22;6014;47.690;9.130;2023-07-20T06:39:43;20.80;66.70
11908;DHT22;6014;47.690;9.130;2023-07-20T06:42:14;20.80;63.90
11908;DHT22;6014;47.690;9.130;2023-07-20T06:44:42;20.90;64.00
11908;DHT22;6014;47.690;9.130;2023-07-20T06:47:10;21.00;63.60
11908;DHT22;6014;47.690;9.130;2023-07-20T06:50:01;21.80;63.60
11908;DHT22;6014;47.690;9.130;2023-07-20T06:52:31;22.10;59.70
11908;DHT22;6014;47.690;9.130;2023-07-20T06:54:59;22.40;58.10
11908;DHT22;6014;47.690;9.130;2023-07-20T06:57:31;22.10;59.70
11908;DHT22;6014;47.690;9.130;2023-07-20T07:00:06;23.20;58.90
11908;DHT22;6014;47.690;9.130;2023-07-20T07:02:34;23.40;57.50
11908;DHT22;6014;47.690;9.130;2023-07-20T07:05:03;23.70;56.50
11908;DHT22;6014;47.690;9.130;2023-07-20T07:07:36;24.20;56.00
11908;DHT22;6014;47.690;9.130;2023-07-20T07:10:07;23.60;56.10
11908;DHT22;6014;47.690;9.130;2023-07-20T07:12:35;23.80;56.60
11908;DHT22;6014;47.690;9.130;2023-07-20T07:15:16;24.40;55.50
11908;DHT22;6014;47.690;9.130;2023-07-20T07:17:44;23.60;54.60
11908;DHT22;6014;47.690;9.130;2023-07-20T07:20:12;23.40;54.70
11908;DHT22;6014;47.690;9.130;2023-07-20T07:22:50;23.40;55.90
11908;DHT22;6014;47.690;9.130;2023-07-20T07:25:19;23.60;55.20
11908;DHT22;6014;47.690;9.130;2023-07-20T07:27:50;23.10;55.90
11908;DHT22;6014;47.690;9.130;2023-07-20T07:30:19;23.10;56.30
11908;DHT22;6014;47.690;9.130;2023-07-20T07:32:47;23.50;54.70
11908;DHT22;6014;47.690;9.130;2023-07-20T07:35:16;23.20;57.20
11908;DHT22;6014;47.690;9.130;2023-07-20T07:37:44;23.20;55.80
11908;DHT22;6014;47.690;9.130;2023-07-20T07:40:34;22.70;55.40
11908;DHT22;6014;47.690;9.130;2023-07-20T07:43:02;23.00;57.30
11908;DHT22;6014;47.690;9.130;2023-07-20T07:45:34;23.20;56.30
11908;DHT22;6014;47.690;9.130;2023-07-20T07:48:02;23.60;57.10
11908;DHT22;6014;47.690;9.130;2023-07-20T07:50:31;23.40;57.30
11908;DHT22;6014;47.690;9.130;2023-07-20T07:52:59;24.20;55.80
11908;DHT22;6014;47.690;9.130;2023-07-20T07:55:27;24.50;54.60
11908;DHT22;6014;47.690;9.130;2023-07-20T07:57:58;24.30;53.70
11908;DHT22;6014;47.690;9.130;2023-07-20T08:00:26;24.50;54.60
11908;DHT22;6014;47.690;9.130;2023-07-20T08:02:54;24.80;54.80
11908;DHT22;6014;47.690;9.130;2023-07-20T08:05:22;25.00;52.20
11908;DHT22;6014;47.690;9.130;2023-07-20T08:07:50;24.60;53.20
11908;DHT22;6014;47.690;9.130;2023-07-20T08:10:19;24.50;52.80
11908;DHT22;6014;47.690;9.130;2023-07-20T08:12:47;25.00;52.80
11908;DHT22;6014;47.690;9.130;2023-07-20T08:15:17;25.40;52.20
11908;DHT22;6014;47.690;9.130;2023-07-20T08:17:45;25.70;52.30
11908;DHT22;6014;47.690;9.130;2023-07-20T08:20:13;25.70;53.20
11908;DHT22;6014;47.690;9.130;2023-07-20T08:22:43;25.80;50.50
11908;DHT22;6014;47.690;9.130;2023-07-20T08:25:14;25.30;49.90
11908;DHT22;6014;47.690;9.130;2023-07-20T08:27:42;25.50;52.70
11908;DHT22;6014;47.690;9.130;2023-07-20T08:30:21;26.00;52.20
11908;DHT22;6014;47.690;9.130;2023-07-20T08:32:50;26.00;49.50
11908;DHT22;6014;47.690;9.130;2023-07-20T08:35:18;25.60;50.50
11908;DHT22;6014;47.690;9.130;2023-07-20T08:37:48;26.20;50.50
11908;DHT22;6014;47.690;9.130;2023-07-20T08:40:17;26.50;49.20
11908;DHT22;6014;47.690;9.130;2023-07-20T08:42:45;25.90;48.50
11908;DHT22;6014;47.690;9.130;2023-07-20T08:45:14;25.90;48.00
11908;DHT22;6014;47.690;9.130;2023-07-20T08:47:45;25.50;50.30
11908;DHT22;6014;47.690;9.130;2023-07-20T08:50:16;25.40;48.50
11908;DHT22;6014;47.690;9.130;2023-07-20T08:52:59;26.10;49.30
11908;DHT22;6014;47.690;9.130;2023-07-20T08:55:30;26.30;47.20
11908;DHT22;6014;47.690;9.130;2023-07-20T08:58:00;26.50;47.20
11908;DHT22;6014;47.690;9.130;2023-07-20T09:00:28;26.40;46.40
11908;DHT22;6014;47.690;9.130;2023-07-20T09:02:58;26.30;46.30
11908;DHT22;6014;47.690;9.130;2023-07-20T09:05:29;25.60;47.40
11908;DHT22;6014;47.690;9.130;2023-07-20T09:07:59;25.60;47.90
11908;DHT22;6014;47.690;9.130;2023-07-20T09:10:29;26.10;46.90
11908;DHT22;6014;47.690;9.130;2023-07-20T09:12:57;25.80;48.20
11908;DHT22;6014;47.690;9.130;2023-07-20T09:15:26;25.70;48.10
11908;DHT22;6014;47.690;9.130;2023-07-20T09:17:54;25.80;49.20
11908;DHT22;6014;47.690;9.130;2023-07-20T09:20:23;25.50;49.20
11908;DHT22;6014;47.690;9.130;2023-07-20T09:22:51;26.00;51.10
11908;DHT22;6014;47.690;9.130;2023-07-20T09:25:22;26.30;50.00
11908;DHT22;6014;47.690;9.130;2023-07-20T09:27:55;26.00;48.20
11908;DHT22;6014;47.690;9.130;2023-07-20T09:30:26;26.30;48.50
11908;DHT22;6014;47.690;9.130;2023-07-20T09:33:02;26.40;47.60
11908;DHT22;6014;47.690;9.130;2023-07-20T09:35:33;26.80;47.30
11908;DHT22;6014;47.690;9.130;2023-07-20T09:38:07;26.20;47.30
11908;DHT22;6014;47.690;9.130;2023-07-20T09:40:39;26.40;48.10
11908;DHT22;6014;47.690;9.130;2023-07-20T09:43:11;26.20;47.40
11908;DHT22;6014;47.690;9.130;2023-07-20T09:45:42;26.30;47.20
11908;DHT22;6014;47.690;9.130;2023-07-20T09:48:13;26.80;46.70
11908;DHT22;6014;47.690;9.130;2023-07-20T09:50:50;27.20;46.50
11908;DHT22;6014;47.690;9.130;2023-07-20T09:53:19;26.50;46.50
11908;DHT22;6014;47.690;9.130;2023-07-20T09:55:48;26.30;48.20
11908;DHT22;6014;47.690;9.130;2023-07-20T09:58:17;26.30;47.10
11908;DHT22;6014;47.690;9.130;2023-07-20T10:00:45;26.00;47.90
11908;DHT22;6014;47.690;9.130;2023-07-20T10:03:25;25.80;47.20
11908;DHT22;6014;47.690;9.130;2023-07-20T10:06:06;25.80;48.60
11908;DHT22;6014;47.690;9.130;2023-07-20T10:08:39;25.10;47.90
11908;DHT22;6014;47.690;9.130;2023-07-20T10:11:12;25.20;48.90
11908;DHT22;6014;47.690;9.130;2023-07-20T10:13:44;25.20;50.20
11908;DHT22;6014;47.690;9.130;2023-07-20T10:16:17;26.30;49.40
11908;DHT22;6014;47.690;9.130;2023-07-20T10:18:51;26.80;47.60
11908;DHT22;6014;47.690;9.130;2023-07-20T10:21:23;26.80;46.70
11908;DHT22;6014;47.690;9.130;2023-07-20T10:23:55;26.70;47.50
11908;DHT22;6014;47.690;9.130;2023-07-20T10:26:25;27.30;46.30
11908;DHT22;6014;47.690;9.130;2023-07-20T10:28:54;26.80;47.40
11908;DHT22;6014;47.690;9.130;2023-07-20T10:31:23;27.30;46.80
11908;DHT22;6014;47.690;9.130;2023-07-20T10:33:51;27.30;45.10
11908;DHT22;6014;47.690;9.130;2023-07-20T10:36:26;27.60;47.50
11908;DHT22;6014;47.690;9.130;2023-07-20T10:38:57;27.70;45.80
11908;DHT22;6014;47.690;9.130;2023-07-20T10:41:28;28.10;45.80
11908;DHT22;6014;47.690;9.130;2023-07-20T10:44:01;27.80;45.80
11908;DHT22;6014;47.690;9.130;2023-07-20T10:46:44;28.10;46.70
11908;DHT22;6014;47.690;9.130;2023-07-20T10:49:14;27.90;46.00
11908;DHT22;6014;47.690;9.130;2023-07-20T10:51:45;27.20;44.70
11908;DHT22;6014;47.690;9.130;2023-07-20T10:54:35;27.80;45.40
11908;DHT22;6014;47.690;9.130;2023-07-20T10:57:27;27.60;45.40
11908;DHT22;6014;47.690;9.130;2023-07-20T11:00:08;28.00;45.50
11908;DHT22;6014;47.690;9.130;2023-07-20T11:02:43;27.90;44.60
11908;DHT22;6014;47.690;9.130;2023-07-20T11:05:36;27.20;46.20
11908;DHT22;6014;47.690;9.130;2023-07-20T11:08:10;27.90;44.70
11908;DHT22;6014;47.690;9.130;2023-07-20T11:10:39;27.70;44.20
11908;DHT22;6014;47.690;9.130;2023-07-20T11:13:21;27.70;45.40
11908;DHT22;6014;47.690;9.130;2023-07-20T11:16:02;27.30;45.10
11908;DHT22;6014;47.690;9.130;2023-07-20T11:18:34;28.00;45.00
11908;DHT22;6014;47.690;9.130;2023-07-20T11:21:08;27.60;43.90
11908;DHT22;6014;47.690;9.130;2023-07-20T11:23:39;27.80;44.50
11908;DHT22;6014;47.690;9.130;2023-07-20T11:26:08;27.70;44.10
11908;DHT22;6014;47.690;9.130;2023-07-20T11:28:36;27.30;45.10
11908;DHT22;6014;47.690;9.130;2023-07-20T11:31:04;28.20;43.60
11908;DHT22;6014;47.690;9.130;2023-07-20T11:33:33;27.70;43.50
11908;DHT22;6014;47.690;9.130;2023-07-20T11:36:01;27.40;45.60
11908;DHT22;6014;47.690;9.130;2023-07-20T11:38:50;27.50;44.00
11908;DHT22;6014;47.690;9.130;2023-07-20T11:41:21;27.60;45.40
11908;DHT22;6014;47.690;9.130;2023-07-20T11:43:49;28.30;45.10
11908;DHT22;6014;47.690;9.130;2023-07-20T11:46:17;28.80;44.20
11908;DHT22;6014;47.690;9.130;2023-07-20T11:48:45;28.90;42.40
11908;DHT22;6014;47.690;9.130;2023-07-20T11:51:14;28.90;43.30
11908;DHT22;6014;47.690;9.130;2023-07-20T11:53:44;28.60;44.10
11908;DHT22;6014;47.690;9.130;2023-07-20T11:56:14;28.50;44.00
11908;DHT22;6014;47.690;9.130;2023-07-20T11:58:43;29.30;42.80
11908;DHT22;6014;47.690;9.130;2023-07-20T12:01:12;29.00;41.70
11908;DHT22;6014;47.690;9.130;2023-07-20T12:03:42;28.10;42.20
11908;DHT22;6014;47.690;9.130;2023-07-20T12:06:11;27.40;42.30
11908;DHT22;6014;47.690;9.130;2023-07-20T12:08:39;27.50;42.90
11908;DHT22;6014;47.690;9.130;2023-07-20T12:11:09;28.20;42.80
11908;DHT22;6014;47.690;9.130;2023-07-20T12:13:40;28.50;42.40
11908;DHT22;6014;47.690;9.130;2023-07-20T12:16:12;28.80;43.10
11908;DHT22;6014;47.690;9.130;2023-07-20T12:18:42;28.70;42.50
11908;DHT22;6014;47.690;9.130;2023-07-20T12:21:10;28.60;43.40
11908;DHT22;6014;47.690;9.130;2023-07-20T12:23:39;28.70;41.80
11908;DHT22;6014;47.690;9.130;2023-07-20T12:26:08;28.30;42.40
11908;DHT22;6014;47.690;9.130;2023-07-20T12:28:42;28.60;42.00
11908;DHT22;6014;47.690;9.130;2023-07-20T12:31:10;29.20;41.60
11908;DHT22;6014;47.690;9.130;2023-07-20T12:33:40;29.40;41.00
11908;DHT22;6014;47.690;9.130;2023-07-20T12:36:09;28.80;39.60
11908;DHT22;6014;47.690;9.130;2023-07-20T12:38:37;28.40;40.30
11908;DHT22;6014;47.690;9.130;2023-07-20T12:41:05;28.30;41.10
11908;DHT22;6014;47.690;9.130;2023-07-20T12:43:33;28.70;41.60
11908;DHT22;6014;47.690;9.130;2023-07-20T12:46:03;29.40;40.20
11908;DHT22;6014;47.690;9.130;2023-07-20T12:48:31;29.60;40.30
11908;DHT22;6014;47.690;9.130;2023-07-20T12:50:59;29.70;40.80
11908;DHT22;6014;47.690;9.130;2023-07-20T12:53:27;30.40;37.30
11908;DHT22;6014;47.690;9.130;2023-07-20T12:55:55;29.60;37.90
11908;DHT22;6014;47.690;9.130;2023-07-20T12:58:23;30.00;36.70
11908;DHT22;6014;47.690;9.130;2023-07-20T13:00:52;29.40;38.00
11908;DHT22;6014;47.690;9.130;2023-07-20T13:03:21;29.80;36.40
11908;DHT22;6014;47.690;9.130;2023-07-20T13:05:52;29.40;37.00
11908;DHT22;6014;47.690;9.130;2023-07-20T13:08:23;29.30;38.20
11908;DHT22;6014;47.690;9.130;2023-07-20T13:10:53;29.50;38.90
11908;DHT22;6014;47.690;9.130;2023-07-20T13:13:22;29.40;37.10
11908;DHT22;6014;47.690;9.130;2023-07-20T13:15:54;29.50;37.10
11908;DHT22;6014;47.690;9.130;2023-07-20T13:18:28;30.40;36.90
11908;DHT22;6014;47.690;9.130;2023-07-20T13:20:58;30.40;35.70
11908;DHT22;6014;47.690;9.130;2023-07-20T13:23:26;30.40;35.80
11908;DHT22;6014;47.690;9.130;2023-07-20T13:25:54;30.40;36.80
11908;DHT22;6014;47.690;9.130;2023-07-20T13:28:22;30.20;35.20
11908;DHT22;6014;47.690;9.130;2023-07-20T13:30:50;29.80;36.10
11908;DHT22;6014;47.690;9.130;2023-07-20T13:33:20;29.90;34.70
11908;DHT22;6014;47.690;9.130;2023-07-20T13:35:49;29.60;35.00
11908;DHT22;6014;47.690;9.130;2023-07-20T13:38:17;29.80;35.60
11908;DHT22;6014;47.690;9.130;2023-07-20T13:40:46;30.10;36.50
11908;DHT22;6014;47.690;9.130;2023-07-20T13:43:14;30.50;35.00
11908;DHT22;6014;47.690;9.130;2023-07-20T13:45:43;29.80;35.20
11908;DHT22;6014;47.690;9.130;2023-07-20T13:48:11;30.30;34.20
11908;DHT22;6014;47.690;9.130;2023-07-20T13:50:43;30.40;33.90
11908;DHT22;6014;47.690;9.130;2023-07-20T13:53:28;30.50;34.10
11908;DHT22;6014;47.690;9.130;2023-07-20T13:55:59;30.30;32.20
11908;DHT22;6014;47.690;9.130;2023-07-20T14:01:29;30.90;35.40
11908;DHT22;6014;47.690;9.130;2023-07-20T14:04:08;31.40;33.80
11908;DHT22;6014;47.690;9.130;2023-07-20T14:06:39;31.90;32.90
11908;DHT22;6014;47.690;9.130;2023-07-20T14:09:09;31.60;31.80
11908;DHT22;6014;47.690;9.130;2023-07-20T14:11:39;31.90;32.20
11908;DHT22;6014;47.690;9.130;2023-07-20T14:14:10;31.00;32.10
11908;DHT22;6014;47.690;9.130;2023-07-20T14:16:39;31.00;32.80
11908;DHT22;6014;47.690;9.130;2023-07-20T14:19:07;30.40;32.80
11908;DHT22;6014;47.690;9.130;2023-07-20T14:21:37;30.40;33.40
11908;DHT22;6014;47.690;9.130;2023-07-20T14:24:05;30.20;33.60
11908;DHT22;6014;47.690;9.130;2023-07-20T14:26:36;30.10;35.00
11908;DHT22;6014;47.690;9.130;2023-07-20T14:29:05;29.80;32.50
11908;DHT22;6014;47.690;9.130;2023-07-20T14:31:34;30.00;37.40
11908;DHT22;6014;47.690;9.130;2023-07-20T14:34:02;30.70;33.90
11908;DHT22;6014;47.690;9.130;2023-07-20T14:36:30;30.40;32.00
11908;DHT22;6014;47.690;9.130;2023-07-20T14:39:00;30.80;33.70
11908;DHT22;6014;47.690;9.130;2023-07-20T14:41:28;30.60;35.90
11908;DHT22;6014;47.690;9.130;2023-07-20T14:43:58;30.50;33.10
11908;DHT22;6014;47.690;9.130;2023-07-20T14:46:26;30.60;33.00
11908;DHT22;6014;47.690;9.130;2023-07-20T14:48:55;30.60;33.70
11908;DHT22;6014;47.690;9.130;2023-07-20T14:51:23;30.30;33.40
11908;DHT22;6014;47.690;9.130;2023-07-20T14:54:03;30.70;33.80
11908;DHT22;6014;47.690;9.130;2023-07-20T14:56:31;31.20;36.30
11908;DHT22;6014;47.690;9.130;2023-07-20T14:59:00;30.00;33.30
11908;DHT22;6014;47.690;9.130;2023-07-20T15:01:28;30.60;33.00
11908;DHT22;6014;47.690;9.130;2023-07-20T15:03:57;30.80;36.70
11908;DHT22;6014;47.690;9.130;2023-07-20T15:06:29;31.40;33.50
11908;DHT22;6014;47.690;9.130;2023-07-20T15:08:57;31.30;29.40
11908;DHT22;6014;47.690;9.130;2023-07-20T15:11:25;31.40;30.20
11908;DHT22;6014;47.690;9.130;2023-07-20T15:13:53;31.00;31.60
11908;DHT22;6014;47.690;9.130;2023-07-20T15:16:23;30.90;29.90
11908;DHT22;6014;47.690;9.130;2023-07-20T15:18:52;30.80;29.80
11908;DHT22;6014;47.690;9.130;2023-07-20T15:21:20;30.10;30.20
11908;DHT22;6014;47.690;9.130;2023-07-20T15:23:50;29.80;30.00
11908;DHT22;6014;47.690;9.130;2023-07-20T15:26:18;30.50;33.30
11908;DHT22;6014;47.690;9.130;2023-07-20T15:28:48;30.90;30.60
11908;DHT22;6014;47.690;9.130;2023-07-20T15:31:26;30.60;30.90
11908;DHT22;6014;47.690;9.130;2023-07-20T15:33:57;29.60;30.70
11908;DHT22;6014;47.690;9.130;2023-07-20T15:36:25;29.00;31.50
11908;DHT22;6014;47.690;9.130;2023-07-20T15:38:53;29.00;32.00
11908;DHT22;6014;47.690;9.130;2023-07-20T15:41:22;29.20;32.10
11908;DHT22;6014;47.690;9.130;2023-07-20T15:43:51;29.70;31.80
11908;DHT22;6014;47.690;9.130;2023-07-20T15:46:45;30.10;32.70
11908;DHT22;6014;47.690;9.130;2023-07-20T15:49:15;29.90;31.10
11908;DHT22;6014;47.690;9.130;2023-07-20T15:51:43;30.20;31.50
11908;DHT22;6014;47.690;9.130;2023-07-20T15:54:14;29.70;34.60
11908;DHT22;6014;47.690;9.130;2023-07-20T15:56:43;29.60;33.40
11908;DHT22;6014;47.690;9.130;2023-07-20T15:59:13;29.70;32.20
11908;DHT22;6014;47.690;9.130;2023-07-20T16:01:50;29.60;33.70
11908;DHT22;6014;47.690;9.130;2023-07-20T16:04:19;29.90;30.90
11908;DHT22;6014;47.690;9.130;2023-07-20T16:06:47;30.10;31.30
11908;DHT22;6014;47.690;9.130;2023-07-20T16:09:16;30.50;31.50
11908;DHT22;6014;47.690;9.130;2023-07-20T16:11:44;30.30;32.20